M I D A S
Marine Information and Data Acquisition System
Tripno 1608 of the Zeeleeuw from 2008-11-07 07:51:46 to 2008-11-07 12:14:58
Back to CruiseResearch ActivitiesStationsMapUnderway DataData graphs

EquipmentUnitsComment
TimeDGPSUTC
LatitudeDGPSDM.mWGS84
LongitudeDGPSDM.mWGS84
HeadingGyrodeg 
SOGDGPSknotsSpeed over ground
COGDGPSdegCourse over ground
DepthEcho soundermeters200 kHz
Missing or incorrect values are displayed as -999
Navigation data collected by the RV Zeeleeuw from 2008-11-07 07:19:33 to 2008-11-07 12:28:13
Time Latitude Longitude Heading SOG COG Depth
2008-11-07 07:20:38 51°13.623 2°56.049 124.2 -999 55 9.5
2008-11-07 07:21:38 51°13.623 2°56.048 124.2 0.1 24 9.5
2008-11-07 07:22:38 51°13.624 2°56.049 124.2 -999 86 9.5
2008-11-07 07:23:38 51°13.624 2°56.048 124.2 -999 358 9.5
2008-11-07 07:24:38 51°13.624 2°56.049 124.1 -999 325 9.5
2008-11-07 07:25:38 51°13.625 2°56.048 124.2 -999 325 9.5
2008-11-07 07:26:38 51°13.625 2°56.048 124.1 -999 357 9.5
2008-11-07 07:27:38 51°13.624 2°56.047 124.1 -999 128 9.5
2008-11-07 07:28:38 51°13.624 2°56.048 124.2 -999 47 9.5
2008-11-07 07:29:38 51°13.625 2°56.049 124 -999 225 9.5
2008-11-07 07:30:38 51°13.625 2°56.048 124.1 -999 70 9.5
2008-11-07 07:31:38 51°13.624 2°56.048 124.1 -999 357 9.5
2008-11-07 07:32:38 51°13.624 2°56.049 124 -999 325 9.5
2008-11-07 07:33:38 51°13.624 2°56.048 124.1 -999 288 9.5
2008-11-07 07:34:38 51°13.624 2°56.049 124.1 -999 284 9.5
2008-11-07 07:35:38 51°13.623 2°56.05 124.2 -999 303 9.5
2008-11-07 07:36:38 51°13.623 2°56.05 124.1 -999 329 9.4
2008-11-07 07:37:38 51°13.623 2°56.05 124.1 -999 290 9.4
2008-11-07 07:38:38 51°13.623 2°56.049 124 -999 7 9.4
2008-11-07 07:39:38 51°13.624 2°56.049 124 -999 345 9.4
2008-11-07 07:40:38 51°13.623 2°56.05 124.1 -999 349 9.4
2008-11-07 07:41:38 51°13.623 2°56.049 124.1 -999 70 9.4
2008-11-07 07:42:38 51°13.623 2°56.05 124.1 -999 32 9.4
2008-11-07 07:43:38 51°13.623 2°56.05 124 -999 270 9.4
2008-11-07 07:44:38 51°13.623 2°56.048 123.9 -999 188 9.4
2008-11-07 07:45:38 51°13.624 2°56.048 123 0.1 133 9.4
2008-11-07 07:46:38 51°13.621 2°56.048 108.3 0.2 258 9.4
2008-11-07 07:47:38 51°13.636 2°55.984 107.9 3.9 290 -999
2008-11-07 07:48:38 51°13.665 2°55.868 110.7 5 293 -999
2008-11-07 07:49:38 51°13.688 2°55.764 94.6 3.3 281 12.7
2008-11-07 07:50:38 51°13.692 2°55.719 60.7 0.7 14 13.5
2008-11-07 07:51:38 51°13.747 2°55.708 334.5 5 333 13.9
2008-11-07 07:52:38 51°13.851 2°55.62 333.7 8.1 334 12.7
2008-11-07 07:53:38 51°13.968 2°55.534 335.6 6.6 336 12.6
2008-11-07 07:54:38 51°14.052 2°55.469 332.3 5.1 333 12.1
2008-11-07 07:55:38 51°14.128 2°55.406 331.5 5.7 331 12.1
2008-11-07 07:56:38 51°14.239 2°55.277 319.8 9.9 318 11.7
2008-11-07 07:57:38 51°14.361 2°55.052 308.4 12.2 308 12.1
2008-11-07 07:58:38 51°14.471 2°54.783 296.2 11.9 296 12.7
2008-11-07 07:59:38 51°14.568 2°54.505 296 12 300 12.6
2008-11-07 08:00:38 51°14.667 2°54.229 295.9 12 299 12.4
2008-11-07 08:01:38 51°14.766 2°53.952 295.1 12 298 11.4
2008-11-07 08:02:38 51°14.862 2°53.67 296.5 12.2 298 11.2
2008-11-07 08:03:38 51°14.959 2°53.385 295.6 12.2 299 11.3
2008-11-07 08:04:38 51°15.057 2°53.102 296 12.2 299 11.3
2008-11-07 08:05:38 51°15.155 2°52.821 295.8 12.1 299 11.9
2008-11-07 08:06:38 51°15.249 2°52.538 293.2 12.1 296 12.1
2008-11-07 08:07:38 51°15.327 2°52.246 287 11.9 290 12.7
2008-11-07 08:08:38 51°15.388 2°51.945 283.4 11.9 286 13.2
2008-11-07 08:09:38 51°15.442 2°51.642 282.7 11.9 286 13.6
2008-11-07 08:10:38 51°15.496 2°51.338 283 11.9 286 14
2008-11-07 08:11:38 51°15.547 2°51.033 280 11.8 283 14.2
2008-11-07 08:12:38 51°15.593 2°50.728 280.6 11.8 283 14.3
2008-11-07 08:13:38 51°15.648 2°50.426 284.1 11.9 286 14.2
2008-11-07 08:14:38 51°15.709 2°50.124 286.6 11.9 290 14.3
2008-11-07 08:15:38 51°15.772 2°49.825 283.8 11.8 287 13.1
2008-11-07 08:16:38 51°15.827 2°49.524 281.6 11.8 284 11.9
2008-11-07 08:17:38 51°15.874 2°49.217 282.7 12 285 12.1
2008-11-07 08:18:38 51°15.933 2°48.914 285 12 288 13.2
2008-11-07 08:19:38 51°15.985 2°48.609 282.4 11.9 285 14.8
2008-11-07 08:20:38 51°16.035 2°48.303 282.2 11.9 284 16.1
2008-11-07 08:21:38 51°16.08 2°47.997 278.6 11.8 280 16.6
2008-11-07 08:22:38 51°16.113 2°47.689 276.8 11.8 281 16.7
2008-11-07 08:23:38 51°16.154 2°47.383 280.5 11.8 283 16.3
2008-11-07 08:24:38 51°16.19 2°47.076 277.4 11.7 281 14.6
2008-11-07 08:25:38 51°16.228 2°46.771 278.4 11.7 281 12.6
2008-11-07 08:26:38 51°16.271 2°46.466 281.6 11.8 283 11.2
2008-11-07 08:27:38 51°16.325 2°46.164 284.2 11.9 288 10.6
2008-11-07 08:28:38 51°16.401 2°45.867 292.3 12.1 296 11.1
2008-11-07 08:29:38 51°16.503 2°45.587 300.5 12.3 307 11.9
2008-11-07 08:30:38 51°16.642 2°45.342 313.9 12.5 318 12.1
2008-11-07 08:31:38 51°16.799 2°45.121 315 12.5 316 12.8
2008-11-07 08:32:38 51°16.955 2°44.899 317.7 12.6 319 13.7
2008-11-07 08:33:38 51°17.119 2°44.69 320.5 12.6 322 16.8
2008-11-07 08:34:38 51°17.285 2°44.486 319.8 12.5 322 17.1
2008-11-07 08:35:38 51°17.45 2°44.281 320 12.5 322 17.8
2008-11-07 08:36:38 51°17.613 2°44.074 319.2 12.5 321 17.8
2008-11-07 08:37:38 51°17.775 2°43.865 318.5 12.4 320 15.1
2008-11-07 08:38:38 51°17.934 2°43.657 317.1 12.5 320 13.9
2008-11-07 08:39:38 51°18.094 2°43.45 318.1 12.4 322 14.9
2008-11-07 08:40:38 51°18.259 2°43.244 317.2 12.5 318 23.8
2008-11-07 08:41:38 51°18.412 2°43.015 310.2 12.6 316 24.5
2008-11-07 08:42:38 51°18.546 2°42.762 300.7 12.3 305 24.4
2008-11-07 08:43:38 51°18.636 2°42.473 287.9 12.2 293 24.6
2008-11-07 08:44:38 51°18.708 2°42.171 287.4 12.1 292 24.3
2008-11-07 08:45:38 51°18.787 2°41.873 289.7 12.2 294 23.1
2008-11-07 08:46:38 51°18.87 2°41.579 290.6 12.2 295 20.4
2008-11-07 08:47:38 51°18.954 2°41.286 291.3 12.1 293 21
2008-11-07 08:48:38 51°19.04 2°40.993 291.4 12.1 295 19.8
2008-11-07 08:49:38 51°19.123 2°40.7 289.9 12.1 293 20
2008-11-07 08:50:38 51°19.208 2°40.409 290.2 12 295 19
2008-11-07 08:51:38 51°19.293 2°40.116 290.4 12.3 297 23.5
2008-11-07 08:52:38 51°19.375 2°39.818 288.5 12.3 292 27.2
2008-11-07 08:53:38 51°19.457 2°39.519 288.2 12.3 294 30.3
2008-11-07 08:54:38 51°19.536 2°39.221 285.3 12.1 292 30.8
2008-11-07 08:55:38 51°19.606 2°38.919 285.7 12.3 291 27.9
2008-11-07 08:56:38 51°19.675 2°38.614 285.4 12.2 290 25.1
2008-11-07 08:57:38 51°19.74 2°38.308 282.4 12.1 286 23.4
2008-11-07 08:58:38 51°19.784 2°37.996 277.8 11.7 281 22.1
2008-11-07 08:59:38 51°19.825 2°37.696 276.8 11.5 282 23.3
2008-11-07 09:00:38 51°19.86 2°37.443 276.9 7.4 285 22.4
2008-11-07 09:01:38 51°19.886 2°37.302 273.4 4.5 288 22
2008-11-07 09:02:38 51°19.907 2°37.204 274.1 3.6 292 23
2008-11-07 09:03:38 51°19.932 2°37.098 279.8 5.2 294 22.7
2008-11-07 09:04:38 51°19.965 2°37.012 284.7 2.9 309 22.2
2008-11-07 09:05:38 51°19.988 2°36.969 271.8 1.7 317 22.4
2008-11-07 09:06:38 51°20.008 2°36.947 264.1 1.3 332 22.4
2008-11-07 09:07:38 51°20.028 2°36.932 259 1.1 339 23
2008-11-07 09:08:38 51°20.047 2°36.922 255.6 1.1 346 23.7
2008-11-07 09:09:38 51°20.067 2°36.914 254.3 1.3 345 24.4
2008-11-07 09:10:38 51°20.086 2°36.905 255.4 1.4 343 24.6
2008-11-07 09:11:38 51°20.105 2°36.899 255.1 1.3 349 21.5
2008-11-07 09:12:38 51°20.125 2°36.895 252.9 1.2 355 22.7
2008-11-07 09:13:38 51°20.146 2°36.894 258.3 1.4 -999 23.1
2008-11-07 09:14:38 51°20.169 2°36.889 268.6 1.5 329 22.2
2008-11-07 09:15:38 51°20.227 2°36.844 344.1 5.7 1 23.3
2008-11-07 09:16:38 51°20.281 2°36.952 92.3 5.4 94 23.4
2008-11-07 09:17:38 51°20.22 2°37.025 176.6 5.4 175 22.5
2008-11-07 09:18:38 51°20.115 2°37.038 177.5 6.8 174 22.2
2008-11-07 09:19:38 51°20.003 2°37.069 174.2 6.7 180 22.1
2008-11-07 09:20:38 51°19.952 2°37.025 225.1 2.5 249 22
2008-11-07 09:21:38 51°19.951 2°36.965 247.8 2.2 277 22.1
2008-11-07 09:22:38 51°19.962 2°36.924 251.6 1.4 304 22
2008-11-07 09:23:38 51°19.981 2°36.912 256.9 1.3 342 22.2
2008-11-07 09:24:38 51°20.003 2°36.91 266.9 1.3 8 22.1
2008-11-07 09:25:38 51°20.027 2°36.911 278.5 1.5 356 22.9
2008-11-07 09:26:38 51°20.051 2°36.908 281.2 1.4 354 23.6
2008-11-07 09:27:38 51°20.074 2°36.903 275.1 1.3 347 25.1
2008-11-07 09:28:38 51°20.094 2°36.898 265.5 1.3 356 17.9
2008-11-07 09:29:38 51°20.115 2°36.897 264.8 1.2 359 22.8
2008-11-07 09:30:38 51°20.138 2°36.899 267.2 1.2 6 22.8
2008-11-07 09:31:38 51°20.16 2°36.903 267.9 1.4 9 23
2008-11-07 09:32:38 51°20.182 2°36.91 268.1 1.5 15 22
2008-11-07 09:33:38 51°20.206 2°36.92 274.5 1.5 19 22.8
2008-11-07 09:34:38 51°20.229 2°36.933 282.2 1.5 18 21.1
2008-11-07 09:35:38 51°20.253 2°36.947 284.4 1.5 21 22.9
2008-11-07 09:36:38 51°20.275 2°36.961 282.2 1.6 18 23.1
2008-11-07 09:37:38 51°20.298 2°36.966 276.6 1.5 333 23.3
2008-11-07 09:38:38 51°20.298 2°36.919 220.8 2.4 225 23.5
2008-11-07 09:39:38 51°20.25 2°36.917 170.2 3.2 166 21.8
2008-11-07 09:40:38 51°20.21 2°36.944 170.6 2 160 23.2
2008-11-07 09:41:38 51°20.187 2°36.96 173.4 1.4 156 22.3
2008-11-07 09:42:38 51°20.167 2°36.957 201.8 1.2 227 21.6
2008-11-07 09:43:38 51°20.157 2°36.928 216.3 0.9 267 22.2
2008-11-07 09:44:38 51°20.164 2°36.909 222.7 0.9 324 22
2008-11-07 09:45:38 51°20.181 2°36.899 234.7 1.2 350 21.4
2008-11-07 09:46:38 51°20.203 2°36.896 256.8 1.4 3 22.6
2008-11-07 09:47:38 51°20.226 2°36.901 276.2 1.4 13 23.1
2008-11-07 09:48:38 51°20.248 2°36.91 285.1 1.3 14 21.4
2008-11-07 09:49:38 51°20.269 2°36.919 286.6 1.5 13 22.8
2008-11-07 09:50:38 51°20.291 2°36.926 282.2 1.3 11 23.1
2008-11-07 09:51:38 51°20.315 2°36.933 273.5 1.4 11 23.1
2008-11-07 09:52:38 51°20.338 2°36.94 273.6 1.4 356 23.5
2008-11-07 09:53:38 51°20.347 2°36.9 234.3 2.2 253 23.2
2008-11-07 09:54:38 51°20.31 2°36.876 177 3.7 173 21.5
2008-11-07 09:55:38 51°20.237 2°36.917 158.1 4.3 152 20.7
2008-11-07 09:56:38 51°20.207 2°36.956 163.8 0.6 104 23
2008-11-07 09:57:38 51°20.212 2°36.967 179 0.6 30 22.8
2008-11-07 09:58:38 51°20.226 2°36.973 184.3 1.2 14 5
2008-11-07 09:59:38 51°20.251 2°36.979 191.2 1.7 7 22.3
2008-11-07 10:00:38 51°20.283 2°36.988 213.8 2.1 12 23
2008-11-07 10:01:38 51°20.312 2°37.005 242.3 1.7 23 21.6
2008-11-07 10:02:38 51°20.334 2°37.022 263.9 1.5 22 23
2008-11-07 10:03:38 51°20.356 2°37.034 279.4 1.5 15 21
2008-11-07 10:04:38 51°20.379 2°37.042 288.7 1.4 11 22.8
2008-11-07 10:05:38 51°20.401 2°37.048 285.1 1.4 8 23.3
2008-11-07 10:06:38 51°20.423 2°37.053 280.4 1.4 10 22.9
2008-11-07 10:07:38 51°20.446 2°37.059 281.7 1.4 8 22.6
2008-11-07 10:08:38 51°20.469 2°37.063 282.6 1.5 338 22
2008-11-07 10:09:38 51°20.468 2°37.003 225.7 3.7 224 23.5
2008-11-07 10:10:38 51°20.376 2°36.982 177.8 7.1 177 23
2008-11-07 10:11:38 51°20.276 2°36.999 181.4 4.8 184 23
2008-11-07 10:12:38 51°20.206 2°36.987 184.1 3.2 184 20.7
2008-11-07 10:13:38 51°20.181 2°36.979 202.3 0.5 258 22.4
2008-11-07 10:14:38 51°20.19 2°36.964 241.7 1.2 330 22.5
2008-11-07 10:15:38 51°20.208 2°36.953 265.3 1.4 347 22.5
2008-11-07 10:16:38 51°20.228 2°36.947 275.4 1.2 350 20.5
2008-11-07 10:17:38 51°20.249 2°36.942 272.2 1.2 353 22
2008-11-07 10:18:38 51°20.268 2°36.939 269 1.1 352 22.9
2008-11-07 10:19:38 51°20.287 2°36.936 266.3 1.3 -999 23.1
2008-11-07 10:20:38 51°20.307 2°36.937 268.8 1.1 2 23.2
2008-11-07 10:21:38 51°20.328 2°36.939 274.7 1.3 5 23.3
2008-11-07 10:22:38 51°20.35 2°36.941 280.4 1.3 5 23
2008-11-07 10:23:38 51°20.372 2°36.946 281.1 1.3 6 21.7
2008-11-07 10:24:38 51°20.394 2°36.949 279.8 1.3 4 22.4
2008-11-07 10:25:38 51°20.415 2°36.95 276.4 1.2 -999 22.6
2008-11-07 10:26:38 51°20.437 2°36.952 275.9 1.3 4 22.7
2008-11-07 10:27:38 51°20.458 2°36.953 276 1.2 5 22
2008-11-07 10:28:38 51°20.479 2°36.956 276.2 1.4 8 21.3
2008-11-07 10:29:38 51°20.501 2°36.961 275.3 1.4 9 22.3
2008-11-07 10:30:38 51°20.523 2°36.965 277 1.3 5 22.5
2008-11-07 10:31:38 51°20.544 2°36.968 274 1.2 7 22.7
2008-11-07 10:32:38 51°20.565 2°36.971 272.2 1.3 7 22.9
2008-11-07 10:33:38 51°20.586 2°36.974 278.1 1.3 5 22.8
2008-11-07 10:34:38 51°20.609 2°36.978 282 1.3 4 23
2008-11-07 10:35:38 51°20.63 2°36.981 281.1 1.3 3 22.7
2008-11-07 10:36:38 51°20.651 2°36.984 278 1.2 5 22.4
2008-11-07 10:37:38 51°20.672 2°36.987 278 1.3 4 22.4
2008-11-07 10:38:38 51°20.695 2°36.986 279.1 1.5 327 22.5
2008-11-07 10:39:38 51°20.693 2°36.932 221.3 2.7 229 21.6
2008-11-07 10:40:38 51°20.629 2°36.914 176.3 6.1 175 22.4
2008-11-07 10:41:38 51°20.511 2°36.943 174.6 7.5 182 21.8
2008-11-07 10:42:38 51°20.383 2°36.942 179.2 7.7 184 21.7
2008-11-07 10:43:38 51°20.286 2°36.916 203 3.6 214 22.7
2008-11-07 10:44:38 51°20.269 2°36.866 237 1.9 265 20.5
2008-11-07 10:45:38 51°20.27 2°36.815 247.5 1.7 277 22.6
2008-11-07 10:46:38 51°20.28 2°36.771 263.1 1.7 300 22.6
2008-11-07 10:47:38 51°20.293 2°36.742 257 1.2 314 22.6
2008-11-07 10:48:38 51°20.308 2°36.725 248.2 1.2 328 22.1
2008-11-07 10:49:38 51°20.326 2°36.716 255 1.2 347 22.2
2008-11-07 10:50:38 51°20.346 2°36.714 267.9 1.3 -999 21.9
2008-11-07 10:51:38 51°20.367 2°36.717 279.1 1.1 7 22
2008-11-07 10:52:38 51°20.386 2°36.724 290.2 1 10 21.8
2008-11-07 10:53:38 51°20.404 2°36.729 292 1.2 14 21.5
2008-11-07 10:54:38 51°20.424 2°36.736 292.5 1.2 12 21.6
2008-11-07 10:55:38 51°20.443 2°36.742 291 1.2 8 21.8
2008-11-07 10:56:38 51°20.463 2°36.748 285.6 1.2 9 21.8
2008-11-07 10:57:38 51°20.482 2°36.752 282.2 1.3 4 22.2
2008-11-07 10:58:38 51°20.503 2°36.756 276.6 1.3 6 21.7
2008-11-07 10:59:38 51°20.524 2°36.761 277.3 1.4 9 22
2008-11-07 11:00:38 51°20.545 2°36.765 280.1 1.5 339 22.1
2008-11-07 11:01:38 51°20.549 2°36.713 231.9 2.5 245 21.3
2008-11-07 11:02:38 51°20.514 2°36.688 168.2 2.6 158 20.5
2008-11-07 11:03:38 51°20.496 2°36.769 105.9 4.3 97 21.6
2008-11-07 11:04:38 51°20.465 2°36.888 125 6.3 120 22.1
2008-11-07 11:05:38 51°20.412 2°37.059 117.5 7.6 113 22.9
2008-11-07 11:06:38 51°20.346 2°37.268 120.8 9.5 120 22.2
2008-11-07 11:07:38 51°20.246 2°37.468 132.2 9.9 134 22.5
2008-11-07 11:08:38 51°20.13 2°37.666 133.5 10.3 133 21.6
2008-11-07 11:09:38 51°20.012 2°37.865 132.8 10.3 134 21.7
2008-11-07 11:10:38 51°19.896 2°38.068 131 10.4 131 22.8
2008-11-07 11:11:38 51°19.782 2°38.273 130.8 10.4 133 21.9
2008-11-07 11:12:38 51°19.668 2°38.48 131.8 10.4 132 22.4
2008-11-07 11:13:38 51°19.555 2°38.689 131.3 10.5 127 24.9
2008-11-07 11:14:38 51°19.448 2°38.902 131 10.2 130 27.5
2008-11-07 11:15:38 51°19.34 2°39.111 131.3 10.3 129 28.6
2008-11-07 11:16:38 51°19.229 2°39.317 131.5 10.3 131 28.3
2008-11-07 11:17:38 51°19.116 2°39.525 130.7 10.4 130 25.9
2008-11-07 11:18:38 51°19.004 2°39.733 131.3 10.3 131 23.8
2008-11-07 11:19:38 51°18.89 2°39.937 132 10.3 131 23.2
2008-11-07 11:20:38 51°18.777 2°40.146 131.4 10.4 129 23.5
2008-11-07 11:21:38 51°18.665 2°40.357 131.1 10.3 131 21
2008-11-07 11:22:38 51°18.552 2°40.56 132.3 10.3 131 17.5
2008-11-07 11:23:38 51°18.436 2°40.762 131.1 10.4 134 17.7
2008-11-07 11:24:38 51°18.325 2°40.97 129.6 10.2 131 16.2
2008-11-07 11:25:38 51°18.214 2°41.18 129.3 10.4 129 19.7
2008-11-07 11:26:38 51°18.103 2°41.391 129.7 10.4 129 21.8
2008-11-07 11:27:38 51°17.989 2°41.61 129.1 11.4 129 23
2008-11-07 11:28:38 51°17.868 2°41.844 129.3 11.6 128 23.6
2008-11-07 11:29:38 51°17.757 2°42.096 123.9 11.6 125 23.6
2008-11-07 11:30:38 51°17.651 2°42.356 122.5 11.7 123 23
2008-11-07 11:31:38 51°17.547 2°42.616 121.4 11.6 123 21.1
2008-11-07 11:32:38 51°17.442 2°42.876 122 11.4 122 11.6
2008-11-07 11:33:38 51°17.338 2°43.129 122.9 11.6 124 12.1
2008-11-07 11:34:38 51°17.233 2°43.385 120.6 11.7 124 13.4
2008-11-07 11:35:38 51°17.123 2°43.641 122.6 11.5 121 14.8
2008-11-07 11:36:38 51°17.016 2°43.898 123.3 11.7 121 14.1
2008-11-07 11:37:38 51°16.908 2°44.156 122.8 11.7 122 15.1
2008-11-07 11:38:38 51°16.799 2°44.415 121.4 11.9 121 14.4
2008-11-07 11:39:38 51°16.693 2°44.676 122 11.8 123 12.7
2008-11-07 11:40:38 51°16.587 2°44.936 120.1 11.6 119 10.8
2008-11-07 11:41:38 51°16.508 2°45.22 111.7 11.7 112 11.5
2008-11-07 11:42:38 51°16.434 2°45.508 112.3 11.8 112 10.9
2008-11-07 11:43:38 51°16.357 2°45.793 112.4 11.8 114 9.9
2008-11-07 11:44:38 51°16.277 2°46.074 113.8 11.7 115 9.7
2008-11-07 11:45:38 51°16.199 2°46.359 112.4 11.8 113 10.8
2008-11-07 11:46:38 51°16.119 2°46.645 114.4 11.9 114 12.5
2008-11-07 11:47:38 51°16.035 2°46.929 115.3 11.8 115 15
2008-11-07 11:48:38 51°15.954 2°47.214 113.9 11.7 111 16.1
2008-11-07 11:49:38 51°15.873 2°47.498 113.3 11.6 114 15.7
2008-11-07 11:50:38 51°15.808 2°47.79 107.1 11.7 109 14.3
2008-11-07 11:51:38 51°15.746 2°48.083 107.8 11.6 107 12.5
2008-11-07 11:52:38 51°15.683 2°48.375 107.3 11.6 108 10.8
2008-11-07 11:53:38 51°15.616 2°48.667 110.5 11.6 111 10
2008-11-07 11:54:38 51°15.552 2°48.961 107.3 11.8 110 10.5
2008-11-07 11:55:38 51°15.483 2°49.254 108.4 11.8 110 12.4
2008-11-07 11:56:38 51°15.42 2°49.548 107.2 11.6 107 12.6
2008-11-07 11:57:38 51°15.358 2°49.841 107.6 11.7 110 12
2008-11-07 11:58:38 51°15.295 2°50.138 105.7 11.7 108 12.4
2008-11-07 11:59:38 51°15.24 2°50.436 105.1 11.6 106 12.4
2008-11-07 12:00:38 51°15.184 2°50.733 105.6 11.7 108 12
2008-11-07 12:01:38 51°15.119 2°51.027 107.9 11.8 111 11.8
2008-11-07 12:02:38 51°15.06 2°51.324 105.3 11.7 105 11.4
2008-11-07 12:03:38 51°15.004 2°51.62 105.6 11.7 108 11.1
2008-11-07 12:04:38 51°14.943 2°51.912 103.9 11.5 107 10.2
2008-11-07 12:05:38 51°14.895 2°52.208 100.7 11.5 104 9.7
2008-11-07 12:06:38 51°14.854 2°52.506 100.4 11.4 103 9.5
2008-11-07 12:07:38 51°14.805 2°52.803 102.8 11.6 103 9.3
2008-11-07 12:08:38 51°14.762 2°53.102 101.3 11.7 103 8.9
2008-11-07 12:09:38 51°14.718 2°53.403 101.8 11.7 102 8.9
2008-11-07 12:10:38 51°14.675 2°53.705 101.4 11.6 104 10.1
2008-11-07 12:11:38 51°14.633 2°54.007 102.2 11.7 103 10.5
2008-11-07 12:12:38 51°14.585 2°54.306 103.4 11.6 106 10.6
2008-11-07 12:13:38 51°14.521 2°54.595 110.5 11.6 113 10.8
2008-11-07 12:14:38 51°14.435 2°54.871 115.3 11.6 121 10.5
2008-11-07 12:15:38 51°14.33 2°55.133 122.8 11.8 125 10.1
2008-11-07 12:16:38 51°14.202 2°55.34 140.2 8.5 146 10
2008-11-07 12:17:38 51°14.111 2°55.42 152.5 5.2 154 9.9
2008-11-07 12:18:38 51°14.034 2°55.481 151.5 5.2 154 10.1
2008-11-07 12:19:38 51°13.94 2°55.55 154.5 7.4 155 10.6
2008-11-07 12:20:38 51°13.83 2°55.631 153.6 6.8 154 10.8
2008-11-07 12:21:38 51°13.743 2°55.727 138.2 6.2 137 10.9
2008-11-07 12:22:38 51°13.678 2°55.845 127.9 5.2 127 9
2008-11-07 12:23:38 51°13.64 2°55.943 115.8 3.8 114 10.3
2008-11-07 12:24:38 51°13.626 2°56.027 102.5 2.3 103 7.9
2008-11-07 12:25:38 51°13.623 2°56.045 120.4 -999 84 7.4
2008-11-07 12:26:38 51°13.623 2°56.047 122.4 0.1 358 7.3
2008-11-07 12:27:38 51°13.623 2°56.047 127 0.1 80 5.4